Time;durP1;ratioP1;P1;durP2;ratioP2;P2;SDS_P1;SDS_P2;PMS_P1;PMS_P2;Temp;Humidity;BMP_temperature;BMP_pressure;BME280_temperature;BME280_humidity;BME280_pressure;Samples;Min_cycle;Max_cycle;Signal;HPM_P1;HPM_P2
2023/06/26 00:01:08;;;;;;;8.27;7.57;;;;;;;19.81;68.26;100279.38;6097032;23;20029;-80
2023/06/26 00:03:34;;;;;;;8.73;8.02;;;;;;;21.79;68.63;100604.75;6073116;23;20012;-78
2023/06/26 00:06:01;;;;;;;8.30;7.60;;;;;;;21.51;68.98;100589.72;6090582;23;20033;-81
2023/06/26 00:08:28;;;;;;;8.82;8.02;;;;;;;18.02;68.74;100013.75;6042546;23;20343;-79
2023/06/26 00:10:55;;;;;;;8.60;7.65;;;;;;;19.32;69.54;100241.50;6064171;23;20037;-79
2023/06/26 00:13:24;;;;;;;8.43;7.72;;;;;;;21.63;69.80;100624.16;6068876;23;20025;-79
2023/06/26 00:15:52;;;;;;;8.40;7.38;;;;;;;19.35;69.62;100289.13;6096484;23;20014;-79
2023/06/26 00:18:23;;;;;;;8.20;7.50;;;;;;;21.29;70.09;100571.47;6072735;23;20042;-81
2023/06/26 00:20:49;;;;;;;8.50;7.70;;;;;;;21.15;70.26;100575.50;6072150;23;20016;-79
2023/06/26 00:23:17;;;;;;;8.45;7.75;;;;;;;20.62;70.14;100489.09;6074628;23;20030;-80
2023/06/26 00:25:44;;;;;;;9.35;8.52;;;;;;;20.96;69.93;100552.44;6092509;23;20020;-79
2023/06/26 00:28:10;;;;;;;8.05;7.38;;;;;;;20.59;70.36;100505.41;6073585;23;20091;-79
2023/06/26 00:30:37;;;;;;;8.48;7.78;;;;;;;20.81;70.80;100561.97;6098148;23;20017;-80
2023/06/26 00:33:04;;;;;;;8.45;7.65;;;;;;;20.99;70.28;100569.97;6079494;23;20595;-79
2023/06/26 00:35:31;;;;;;;8.65;7.85;;;;;;;21.12;69.82;100599.81;6071459;23;20073;-79
2023/06/26 00:37:57;;;;;;;8.10;7.45;;;;;;;19.99;69.47;100447.19;6095203;23;20029;-80
2023/06/26 00:40:26;;;;;;;8.52;7.82;;;;;;;21.03;69.61;100587.41;6097943;23;20021;-78
2023/06/26 00:42:53;;;;;;;9.13;8.23;;;;;;;19.28;69.80;100335.91;6076039;23;20023;-79
2023/06/26 00:45:19;;;;;;;8.30;7.60;;;;;;;21.02;70.26;100613.22;6070067;23;20064;-79
2023/06/26 00:48:06;;;;;;;8.18;7.40;;;;;;;20.72;69.53;100558.38;6088326;23;20029;-81
2023/06/26 00:50:35;;;;;;;8.57;7.78;;;;;;;21.16;69.13;100629.72;6072283;23;20035;-82
2023/06/26 00:53:06;;;;;;;9.13;8.00;;;;;;;20.92;68.95;100599.09;6098492;23;20026;-79
2023/06/26 00:55:32;;;;;;;8.32;7.72;;;;;;;19.13;68.66;100347.03;6076118;23;20045;-78
2023/06/26 00:57:59;;;;;;;8.00;7.28;;;;;;;21.03;68.72;100628.25;6066857;23;20021;-79
2023/06/26 01:00:26;;;;;;;8.32;7.63;;;;;;;20.66;68.48;100548.28;6096234;23;20058;-79
2023/06/26 01:02:53;;;;;;;8.30;7.60;;;;;;;20.85;68.51;100582.03;6072433;23;20021;-80
2023/06/26 01:05:22;;;;;;;8.20;7.47;;;;;;;20.35;68.14;100502.41;6061691;23;20046;-79
2023/06/26 01:07:49;;;;;;;8.88;8.18;;;;;;;21.12;68.44;100627.31;6063817;23;20010;-82
2023/06/26 01:10:19;;;;;;;9.07;8.27;;;;;;;20.98;67.85;100595.81;6092958;23;20275;-80
2023/06/26 01:12:45;;;;;;;7.85;7.35;;;;;;;20.73;68.01;100576.06;6094483;23;20048;-79
2023/06/26 01:15:12;;;;;;;7.78;7.18;;;;;;;20.60;68.11;100527.56;6074200;23;20486;-79
2023/06/26 01:17:40;;;;;;;8.30;7.60;;;;;;;20.80;67.82;100541.63;6069637;23;20110;-79
2023/06/26 01:20:10;;;;;;;8.43;7.60;;;;;;;18.55;67.64;100192.94;6070858;23;20040;-81
2023/06/26 01:22:45;;;;;;;8.13;7.50;;;;;;;21.13;68.14;100620.19;6072041;23;20464;-82
2023/06/26 01:25:29;;;;;;;8.85;7.75;;;;;;;18.55;68.03;100227.50;6071919;23;20042;-80
2023/06/26 01:27:59;;;;;;;8.77;8.07;;;;;;;19.01;68.52;100286.19;6072586;23;20025;-82
2023/06/26 01:30:26;;;;;;;7.72;7.13;;;;;;;20.26;68.66;100494.31;6096882;23;20009;-79
2023/06/26 01:32:52;;;;;;;8.82;7.90;;;;;;;20.72;69.22;100582.38;6078820;23;20010;-80
2023/06/26 01:35:19;;;;;;;8.50;7.78;;;;;;;20.88;69.38;100627.06;6096509;23;20118;-80
2023/06/26 01:37:46;;;;;;;9.32;8.10;;;;;;;20.18;69.56;100514.69;6071371;23;20034;-80
2023/06/26 01:40:12;;;;;;;8.52;7.72;;;;;;;20.64;69.28;100583.09;6096419;23;20228;-81
2023/06/26 01:42:39;;;;;;;8.10;7.40;;;;;;;18.76;69.53;100288.44;6074014;23;20443;-80
2023/06/26 01:45:23;;;;;;;8.32;7.70;;;;;;;16.68;69.25;99961.47;6074533;23;20061;-80
2023/06/26 01:47:54;;;;;;;8.43;7.70;;;;;;;18.64;69.63;100317.00;6074889;23;20411;-82
2023/06/26 01:50:28;;;;;;;8.43;7.72;;;;;;;20.84;69.51;100657.69;6095994;23;20013;-80
2023/06/26 01:53:03;;;;;;;7.90;7.30;;;;;;;18.09;69.52;100210.50;6097864;23;20135;-82
2023/06/26 01:55:51;;;;;;;9.50;8.43;;;;;;;20.77;69.69;100636.13;6095560;23;20056;-81
2023/06/26 01:58:22;;;;;;;8.68;7.97;;;;;;;20.17;69.55;100571.66;6089546;23;20049;-80
2023/06/26 02:00:49;;;;;;;9.02;7.50;;;;;;;20.02;69.58;100547.28;6072168;23;20706;-80
2023/06/26 02:03:16;;;;;;;8.43;7.72;;;;;;;19.03;69.95;100393.25;6072001;23;20123;-81
2023/06/26 02:05:44;;;;;;;8.13;7.53;;;;;;;18.83;69.79;100373.81;6096248;23;20046;-80
2023/06/26 02:08:14;;;;;;;8.80;7.90;;;;;;;17.77;69.76;100222.19;6077451;23;20021;-79
2023/06/26 02:10:40;;;;;;;8.50;7.82;;;;;;;17.67;69.48;100202.78;6078035;23;20021;-81
2023/06/26 02:13:07;;;;;;;8.13;7.43;;;;;;;20.68;69.85;100645.81;6090431;23;20026;-80
2023/06/26 02:15:34;;;;;;;8.27;7.57;;;;;;;18.77;69.54;100345.13;6095464;23;20093;-78
2023/06/26 02:18:00;;;;;;;9.32;7.65;;;;;;;19.87;70.23;100541.59;6091647;23;20030;-79
2023/06/26 02:20:27;;;;;;;8.52;7.82;;;;;;;20.51;69.86;100642.06;6103750;23;20029;-78
2023/06/26 02:22:56;;;;;;;8.88;8.13;;;;;;;20.63;70.20;100672.09;6105267;23;20088;-79
2023/06/26 02:25:23;;;;;;;7.95;7.35;;;;;;;20.43;69.72;100633.97;6120957;23;20026;-80
2023/06/26 02:27:49;;;;;;;9.32;8.52;;;;;;;20.53;69.57;100631.28;6117110;23;20530;-78
2023/06/26 02:30:16;;;;;;;9.40;7.57;;;;;;;20.50;69.67;100636.88;6125171;23;20027;-81
2023/06/26 02:32:42;;;;;;;8.35;7.75;;;;;;;19.93;69.76;100555.16;6120350;23;20018;-79
2023/06/26 02:35:09;;;;;;;8.27;7.50;;;;;;;19.50;69.83;100500.59;6120931;23;20201;-81
2023/06/26 02:37:36;;;;;;;8.13;7.43;;;;;;;18.82;70.23;100433.28;6124705;23;20076;-80
2023/06/26 02:40:03;;;;;;;8.52;7.75;;;;;;;19.84;69.85;100565.84;6096044;23;20027;-80
2023/06/26 02:42:31;;;;;;;8.10;7.40;;;;;;;19.84;70.29;100587.97;6118467;23;20024;-79
2023/06/26 02:45:01;;;;;;;9.10;7.85;;;;;;;19.95;70.88;100650.09;6125679;23;20021;-79
2023/06/26 02:47:27;;;;;;;8.50;7.57;;;;;;;19.38;70.93;100535.47;6106648;23;20090;-79
2023/06/26 02:49:54;;;;;;;7.85;7.15;;;;;;;19.43;71.42;100571.31;6104067;23;20025;-80
2023/06/26 02:52:22;;;;;;;8.13;7.35;;;;;;;19.57;72.03;100625.97;6128708;23;20032;-77
2023/06/26 02:54:48;;;;;;;8.80;8.00;;;;;;;19.85;72.10;100666.06;6126818;23;20609;-78
2023/06/26 02:57:16;;;;;;;11.65;7.75;;;;;;;19.50;72.99;100607.06;6102691;23;20024;-80
2023/06/26 02:59:43;;;;;;;8.10;7.40;;;;;;;19.81;73.06;100662.84;6106849;23;20049;-80
2023/06/26 03:02:20;;;;;;;7.53;7.03;;;;;;;19.93;72.16;100688.34;6102971;23;20025;-78
2023/06/26 03:04:47;;;;;;;8.20;7.53;;;;;;;19.31;73.30;100585.75;6103850;23;20088;-79
2023/06/26 03:07:16;;;;;;;8.07;7.30;;;;;;;18.72;72.74;100492.59;6097159;23;20026;-77
2023/06/26 03:09:45;;;;;;;8.52;7.68;;;;;;;19.74;72.93;100648.41;6131389;23;20435;-81
2023/06/26 03:12:12;;;;;;;8.32;7.53;;;;;;;20.27;72.99;100740.34;6107071;23;20021;-79
2023/06/26 03:14:48;;;;;;;8.13;7.53;;;;;;;20.40;73.28;100766.69;6059495;23;20065;-78
2023/06/26 03:17:15;;;;;;;8.10;7.50;;;;;;;19.48;73.59;100614.34;6129254;23;20018;-79
2023/06/26 03:19:42;;;;;;;8.82;7.85;;;;;;;20.20;74.43;100756.03;6092628;23;20479;-79
2023/06/26 03:22:09;;;;;;;8.30;7.32;;;;;;;19.87;75.16;100688.91;6093540;23;20041;-81
2023/06/26 03:24:40;;;;;;;8.43;7.60;;;;;;;19.95;74.89;100701.53;6096409;23;20685;-79
2023/06/26 03:27:10;;;;;;;8.35;7.55;;;;;;;18.07;75.38;100401.00;6122823;23;20009;-79
2023/06/26 03:29:37;;;;;;;7.95;7.35;;;;;;;20.13;76.16;100733.63;6068046;23;20127;-81
2023/06/26 03:32:04;;;;;;;11.68;7.70;;;;;;;19.24;76.58;100579.28;6094766;23;20403;-81
2023/06/26 03:34:30;;;;;;;8.48;7.70;;;;;;;19.80;77.53;100679.78;6064153;23;20365;-81
2023/06/26 03:36:57;;;;;;;8.32;7.63;;;;;;;20.43;78.55;100787.75;6115636;23;20321;-82
2023/06/26 03:39:23;;;;;;;8.07;7.47;;;;;;;20.45;78.73;100793.78;6092304;23;20025;-84
2023/06/26 03:41:54;;;;;;;7.70;7.05;;;;;;;19.58;79.29;100624.97;6103917;23;20037;-85
2023/06/26 03:44:22;;;;;;;8.82;7.90;;;;;;;20.57;79.19;100781.97;6088335;23;20489;-84
2023/06/26 03:46:49;;;;;;;7.72;7.13;;;;;;;19.19;79.62;100555.78;6098829;23;20041;-85
2023/06/26 03:49:18;;;;;;;8.40;7.57;;;;;;;18.96;80.23;100525.94;6069761;23;20451;-84
2023/06/26 03:51:45;;;;;;;9.35;8.50;;;;;;;16.22;80.06;100113.81;6079937;23;20017;-84
2023/06/26 03:54:14;;;;;;;7.93;7.30;;;;;;;20.85;80.87;100838.94;6043170;23;20013;-84
2023/06/26 03:56:45;;;;;;;9.20;8.50;;;;;;;19.04;79.82;100560.69;6092620;23;20077;-86
2023/06/26 03:59:19;;;;;;;8.95;7.75;;;;;;;16.62;78.92;100187.19;6088640;23;20353;-85
2023/06/26 04:01:48;;;;;;;8.35;7.65;;;;;;;18.26;79.69;100411.66;6086524;23;20117;-84
2023/06/26 04:04:22;;;;;;;8.38;7.75;;;;;;;16.37;79.20;100103.72;6058151;23;20570;-84
2023/06/26 04:06:59;;;;;;;9.02;7.88;;;;;;;21.10;78.83;100842.78;6117809;23;20029;-85
2023/06/26 04:09:28;;;;;;;8.00;7.40;;;;;;;18.60;78.18;100429.03;6035466;23;20439;-84
2023/06/26 04:11:57;;;;;;;10.93;8.00;;;;;;;19.71;78.52;100584.78;6102388;23;20007;-84
2023/06/26 04:14:24;;;;;;;8.88;8.20;;;;;;;17.81;76.13;100190.91;6063521;23;20564;-84
2023/06/26 04:16:53;;;;;;;8.45;7.70;;;;;;;19.88;74.39;100437.56;6073152;23;20023;-83
2023/06/26 04:19:32;;;;;;;8.30;7.63;;;;;;;19.08;72.30;100336.00;6066917;23;20105;-83
2023/06/26 04:22:02;;;;;;;7.82;7.13;;;;;;;18.04;72.43;100155.16;6062654;23;20022;-86
2023/06/26 04:24:33;;;;;;;9.88;7.93;;;;;;;22.30;72.94;100865.16;6114111;23;20013;-84
2023/06/26 04:27:05;;;;;;;8.18;7.53;;;;;;;18.02;73.32;100243.88;6074659;23;20006;-85
2023/06/26 04:29:44;;;;;;;8.02;7.32;;;;;;;21.37;74.11;100778.91;6066515;23;20086;-85
2023/06/26 04:32:11;;;;;;;10.13;7.40;;;;;;;20.65;74.37;100606.13;6069528;23;20025;-84
2023/06/26 04:34:40;;;;;;;7.97;7.30;;;;;;;20.11;73.56;100495.81;6074136;23;20182;-85
2023/06/26 04:37:17;;;;;;;7.65;7.00;;;;;;;20.58;73.06;100573.00;6068216;23;20224;-85
2023/06/26 04:39:46;;;;;;;7.60;7.10;;;;;;;20.66;71.98;100484.31;6090409;23;20006;-86
2023/06/26 04:42:25;;;;;;;7.70;7.10;;;;;;;21.95;69.66;100598.72;6066661;23;20352;-86
2023/06/26 04:44:57;;;;;;;7.57;6.88;;;;;;;21.70;67.00;100497.88;6068490;23;20177;-84
2023/06/26 04:47:26;;;;;;;8.13;7.43;;;;;;;20.13;64.93;100153.66;6061786;23;20376;-85
2023/06/26 04:49:54;;;;;;;8.40;7.75;;;;;;;22.30;63.75;100459.59;6069699;23;20013;-85
2023/06/26 04:52:26;;;;;;;8.95;8.02;;;;;;;21.58;63.67;100354.94;6038266;23;20242;-86
2023/06/26 04:55:04;;;;;;;8.20;7.53;;;;;;;20.45;62.86;100117.53;6067716;23;20033;-86
2023/06/26 04:57:52;;;;;;;8.05;7.50;;;;;;;22.78;63.43;100500.00;6068696;23;20389;-86
2023/06/26 05:00:32;;;;;;;7.93;7.28;;;;;;;24.58;63.13;100845.06;6071622;23;20062;-84
2023/06/26 05:03:05;;;;;;;8.07;7.38;;;;;;;21.97;61.50;100317.00;6055842;23;20294;-84
2023/06/26 05:05:39;;;;;;;7.70;7.10;;;;;;;24.12;60.47;100627.47;6054913;23;20398;-86
2023/06/26 05:08:22;;;;;;;7.80;6.90;;;;;;;23.17;61.31;100560.97;6074597;23;20014;-85
2023/06/26 05:10:49;;;;;;;7.32;6.82;;;;;;;23.91;63.35;100753.13;6073875;23;20045;-86
2023/06/26 05:13:17;;;;;;;7.32;6.72;;;;;;;23.20;65.05;100769.50;6111996;23;20022;-89
2023/06/26 05:15:44;;;;;;;7.80;7.20;;;;;;;22.59;65.44;100656.28;6079357;23;20234;-87
2023/06/26 05:18:11;;;;;;;7.50;7.00;;;;;;;23.03;66.08;100743.63;6131756;23;20050;-82
2023/06/26 05:20:38;;;;;;;7.78;7.07;;;;;;;22.15;66.89;100632.28;6070072;23;20022;-83
2023/06/26 05:23:05;;;;;;;8.13;7.40;;;;;;;23.16;66.90;100804.78;6104158;23;20013;-83
2023/06/26 05:25:34;;;;;;;7.43;6.80;;;;;;;22.53;65.49;100680.97;6095766;23;20094;-78
2023/06/26 05:28:01;;;;;;;6.88;6.35;;;;;;;23.02;66.31;100795.50;6099880;23;20021;-84
2023/06/26 05:30:28;;;;;;;7.25;6.70;;;;;;;22.57;66.02;100733.19;6125159;23;20157;-86
2023/06/26 05:32:55;;;;;;;7.53;6.93;;;;;;;22.60;66.01;100738.19;6077127;23;20135;-85
2023/06/26 05:35:22;;;;;;;7.10;6.63;;;;;;;21.98;66.23;100665.22;6103798;23;20025;-84
2023/06/26 05:37:50;;;;;;;7.55;6.90;;;;;;;23.35;65.41;100811.72;6073467;23;20014;-85
2023/06/26 05:40:20;;;;;;;7.10;6.60;;;;;;;23.62;63.25;100781.19;6098423;23;20026;-85
2023/06/26 05:42:47;;;;;;;7.35;6.65;;;;;;;23.60;61.26;100662.66;6092205;23;20088;-85
2023/06/26 05:45:14;;;;;;;7.30;6.80;;;;;;;24.40;59.27;100696.81;6104475;23;20518;-86
2023/06/26 05:47:41;;;;;;;7.10;6.60;;;;;;;23.80;58.18;100615.78;6045355;23;20044;-82
2023/06/26 05:50:09;;;;;;;8.05;6.60;;;;;;;24.58;58.16;100700.16;6099052;23;20086;-85
2023/06/26 05:52:36;;;;;;;7.90;6.70;;;;;;;24.48;57.05;100621.69;6066922;23;20408;-82
2023/06/26 05:55:03;;;;;;;7.30;6.70;;;;;;;25.86;54.97;100712.47;6097688;23;20105;-84
2023/06/26 05:57:30;;;;;;;7.28;6.78;;;;;;;26.03;54.22;100672.88;6119352;23;20089;-82
2023/06/26 05:59:57;;;;;;;6.97;6.57;;;;;;;25.33;53.33;100534.19;6074855;23;20370;-85
2023/06/26 06:02:24;;;;;;;7.47;6.78;;;;;;;24.61;54.50;100511.16;6122405;23;20070;-81
2023/06/26 06:04:50;;;;;;;7.40;6.80;;;;;;;23.15;56.38;100386.28;6072494;23;20082;-82
2023/06/26 06:07:17;;;;;;;7.88;6.90;;;;;;;24.71;57.18;100698.78;6105743;23;20328;-79
2023/06/26 06:09:43;;;;;;;7.40;6.82;;;;;;;23.51;58.58;100562.66;6097964;23;20282;-79
2023/06/26 06:12:10;;;;;;;7.22;6.72;;;;;;;24.40;59.25;100705.69;6099943;23;20069;-79
2023/06/26 06:14:36;;;;;;;7.90;7.28;;;;;;;24.01;59.30;100668.03;6068257;23;20022;-80
2023/06/26 06:17:03;;;;;;;7.65;7.07;;;;;;;23.17;58.80;100502.06;6118896;23;20247;-79
2023/06/26 06:19:29;;;;;;;6.88;6.38;;;;;;;23.88;59.63;100685.47;6047001;23;20058;-81
2023/06/26 06:21:56;;;;;;;7.20;6.60;;;;;;;23.26;59.65;100620.75;6129840;23;20030;-81
2023/06/26 06:24:22;;;;;;;7.20;6.60;;;;;;;23.27;60.04;100600.97;6096081;23;20041;-81
2023/06/26 06:26:49;;;;;;;7.55;6.88;;;;;;;22.83;60.89;100603.88;6115557;23;20254;-81
2023/06/26 06:29:15;;;;;;;7.35;6.82;;;;;;;22.26;62.28;100597.28;6071966;23;20195;-81
2023/06/26 06:31:41;;;;;;;7.70;7.00;;;;;;;22.10;63.28;100597.97;6120280;23;20093;-78
2023/06/26 06:34:08;;;;;;;7.22;6.72;;;;;;;21.98;64.96;100700.78;6066999;23;20415;-82
2023/06/26 06:36:35;;;;;;;7.03;6.50;;;;;;;22.28;65.55;100734.28;6097905;23;20036;-83
2023/06/26 06:39:01;;;;;;;7.68;6.97;;;;;;;22.58;64.38;100675.16;6102725;23;20404;-80
2023/06/26 06:41:27;;;;;;;7.43;6.90;;;;;;;23.50;62.32;100717.19;6072696;23;20081;-83
2023/06/26 06:43:54;;;;;;;7.20;6.70;;;;;;;24.16;60.72;100764.72;6118693;23;20053;-80
2023/06/26 06:46:21;;;;;;;7.25;6.70;;;;;;;23.79;60.77;100689.13;6069132;23;20030;-81
2023/06/26 06:48:47;;;;;;;7.75;7.07;;;;;;;23.68;59.57;100601.84;6118046;23;20042;-83
2023/06/26 06:51:14;;;;;;;7.38;6.80;;;;;;;23.55;58.46;100542.56;6094761;23;20446;-81
2023/06/26 06:53:40;;;;;;;9.43;7.35;;;;;;;23.40;60.19;100660.25;6102789;23;20044;-81
2023/06/26 06:56:06;;;;;;;7.60;7.00;;;;;;;22.98;61.71;100620.97;6070501;23;20026;-81
2023/06/26 06:58:33;;;;;;;8.40;7.18;;;;;;;23.55;61.68;100734.63;6118216;23;20033;-81
2023/06/26 07:01:02;;;;;;;7.13;6.53;;;;;;;23.25;61.37;100694.88;6070683;23;20212;-82
2023/06/26 07:03:28;;;;;;;6.57;6.18;;;;;;;24.33;62.53;100880.91;6117940;23;20030;-82
2023/06/26 07:05:56;;;;;;;7.70;7.00;;;;;;;23.09;62.34;100695.69;6096612;23;20526;-82
2023/06/26 07:08:22;;;;;;;7.40;6.80;;;;;;;22.81;63.60;100715.56;6099132;23;20021;-81
2023/06/26 07:10:51;;;;;;;7.20;6.72;;;;;;;22.14;64.55;100713.44;6068610;23;20387;-81
2023/06/26 07:13:18;;;;;;;7.72;6.60;;;;;;;22.41;65.57;100765.13;6125108;23;20031;-81
2023/06/26 07:15:45;;;;;;;7.20;6.60;;;;;;;22.54;65.05;100784.31;6095525;23;20168;-81
2023/06/26 07:18:12;;;;;;;7.57;7.05;;;;;;;22.63;64.92;100766.47;6097812;23;20026;-81
2023/06/26 07:20:38;;;;;;;7.07;6.53;;;;;;;23.22;63.83;100754.09;6077863;23;20249;-80
2023/06/26 07:23:05;;;;;;;7.95;6.93;;;;;;;23.86;61.48;100778.59;6106299;23;20059;-80
2023/06/26 07:25:31;;;;;;;7.25;6.65;;;;;;;22.66;62.70;100641.25;6072272;23;20022;-83
2023/06/26 07:27:58;;;;;;;7.47;6.78;;;;;;;24.15;61.05;100787.19;6113736;23;20348;-84
2023/06/26 07:30:24;;;;;;;6.85;6.35;;;;;;;24.52;61.18;100853.78;6080313;23;20134;-77
2023/06/26 07:32:51;;;;;;;7.30;6.70;;;;;;;24.59;61.00;100829.78;6110360;23;20049;-77
2023/06/26 07:35:17;;;;;;;6.63;6.22;;;;;;;24.64;59.86;100824.78;6081657;23;20113;-77
2023/06/26 07:37:44;;;;;;;7.35;6.75;;;;;;;24.18;60.47;100774.28;6053786;23;20481;-77
2023/06/26 07:40:11;;;;;;;7.68;6.93;;;;;;;23.63;61.19;100718.56;6114136;23;20110;-79
2023/06/26 07:42:38;;;;;;;7.45;6.85;;;;;;;24.25;62.30;100849.53;6056895;23;20094;-77
2023/06/26 07:45:09;;;;;;;8.98;6.72;;;;;;;24.43;60.90;100850.22;6113721;23;20114;-76
2023/06/26 07:47:41;;;;;;;7.43;6.70;;;;;;;24.26;60.11;100768.91;6086564;23;20084;-79
2023/06/26 07:50:08;;;;;;;7.15;6.55;;;;;;;24.38;60.18;100793.56;6111453;23;20042;-77
2023/06/26 07:52:34;;;;;;;6.80;6.40;;;;;;;24.72;59.89;100850.75;6080989;23;20021;-77
2023/06/26 07:55:01;;;;;;;6.97;6.38;;;;;;;23.68;60.25;100726.94;6084726;23;20080;-77
2023/06/26 07:57:27;;;;;;;7.10;6.70;;;;;;;24.51;60.78;100851.25;6110159;23;20028;-77
2023/06/26 07:59:55;;;;;;;6.63;6.22;;;;;;;24.94;60.61;100905.59;6079135;23;20021;-77
2023/06/26 08:02:22;;;;;;;6.88;6.47;;;;;;;25.17;60.08;100892.31;6116940;23;20293;-77
2023/06/26 08:04:50;;;;;;;7.10;6.50;;;;;;;24.74;59.60;100792.38;6079307;23;20081;-77
2023/06/26 08:07:18;;;;;;;7.50;6.90;;;;;;;25.32;58.38;100847.66;6112758;23;20018;-77
2023/06/26 08:09:45;;;;;;;7.78;7.07;;;;;;;25.13;57.60;100786.25;6055805;23;20133;-77
2023/06/26 08:12:11;;;;;;;6.97;6.47;;;;;;;25.90;56.89;100867.09;6110258;23;20024;-77
2023/06/26 08:14:39;;;;;;;7.35;6.80;;;;;;;25.35;57.03;100787.34;6115060;23;20205;-77
2023/06/26 08:17:05;;;;;;;6.95;6.45;;;;;;;25.64;57.03;100859.28;6083917;23;20015;-77
2023/06/26 08:19:31;;;;;;;6.97;6.47;;;;;;;25.52;57.79;100866.91;6115459;23;20058;-77
2023/06/26 08:21:58;;;;;;;7.07;6.50;;;;;;;24.65;58.50;100787.00;6111238;23;20029;-77
2023/06/26 08:24:24;;;;;;;8.27;6.80;;;;;;;24.75;58.46;100799.41;6114267;23;20033;-76
2023/06/26 08:26:51;;;;;;;8.85;7.10;;;;;;;24.38;58.53;100769.41;6082383;23;20110;-77
2023/06/26 08:29:17;;;;;;;7.63;6.80;;;;;;;24.37;58.72;100778.44;6106652;23;20052;-77
2023/06/26 08:31:44;;;;;;;7.10;6.60;;;;;;;25.23;58.83;100894.34;6111734;23;20390;-77
2023/06/26 08:34:10;;;;;;;7.05;6.43;;;;;;;24.39;57.97;100736.19;6109863;23;20032;-77
2023/06/26 08:36:37;;;;;;;7.28;6.70;;;;;;;24.45;58.43;100767.72;6090358;23;20324;-77
2023/06/26 08:39:05;;;;;;;7.35;6.70;;;;;;;24.11;59.44;100801.91;6104793;23;20112;-77
2023/06/26 08:41:32;;;;;;;6.75;6.28;;;;;;;23.97;60.20;100790.00;6108795;23;20060;-78
2023/06/26 08:43:58;;;;;;;7.60;6.97;;;;;;;24.25;59.81;100817.34;6114142;23;20056;-78
2023/06/26 08:46:25;;;;;;;7.40;6.72;;;;;;;24.46;58.96;100827.59;6091476;23;20029;-77
2023/06/26 08:48:56;;;;;;;7.45;6.85;;;;;;;25.04;59.11;100915.16;6085946;23;20191;-78
2023/06/26 08:51:28;;;;;;;7.15;6.65;;;;;;;25.18;57.93;100875.19;6118266;23;20185;-77
2023/06/26 08:53:59;;;;;;;;;;;;;;;25.21;58.45;100901.69;6115371;23;20025;-78
2023/06/26 08:56:45;;;;;;;7.07;6.68;;;;;;;24.79;57.95;100828.44;6113318;23;19917;-78
2023/06/26 08:59:13;;;;;;;6.95;6.55;;;;;;;25.04;58.24;100872.19;6117899;23;20047;-77
2023/06/26 09:01:41;;;;;;;9.00;6.95;;;;;;;25.16;56.94;100839.59;6099348;23;21367;-78
2023/06/26 09:04:07;;;;;;;7.40;6.90;;;;;;;24.68;57.05;100772.44;6092487;23;20032;-78
2023/06/26 09:06:34;;;;;;;7.57;6.85;;;;;;;25.16;57.41;100887.94;6122918;23;20022;-77
2023/06/26 09:09:00;;;;;;;7.35;6.88;;;;;;;24.92;56.46;100811.81;6122069;23;20032;-78
2023/06/26 09:11:27;;;;;;;7.38;6.80;;;;;;;25.43;56.43;100895.63;6123563;23;20053;-78
2023/06/26 09:13:55;;;;;;;7.65;7.10;;;;;;;24.62;56.28;100773.94;6101057;23;20026;-78
2023/06/26 09:16:28;;;;;;;8.75;7.53;;;;;;;24.93;56.20;100810.78;6100290;23;20043;-77
2023/06/26 09:18:56;;;;;;;7.35;6.70;;;;;;;25.62;55.36;100853.25;6106836;23;20005;-78
2023/06/26 09:21:24;;;;;;;8.07;7.00;;;;;;;25.38;54.14;100770.88;6101133;23;20042;-78
2023/06/26 09:23:54;;;;;;;7.53;6.82;;;;;;;25.42;54.88;100821.41;6095925;23;20148;-79
2023/06/26 09:26:22;;;;;;;7.40;6.85;;;;;;;25.73;55.56;100874.34;6098831;23;20049;-77
2023/06/26 09:28:49;;;;;;;7.30;6.80;;;;;;;25.07;55.35;100772.47;6096276;23;20100;-78
2023/06/26 09:31:16;;;;;;;7.38;6.88;;;;;;;25.00;55.18;100781.44;6093630;23;20037;-77
2023/06/26 09:34:03;;;;;;;7.50;7.00;;;;;;;24.93;55.17;100775.88;6067096;23;20022;-78
2023/06/26 09:36:36;;;;;;;7.50;6.80;;;;;;;25.37;55.16;100841.75;6066686;23;20099;-78
2023/06/26 09:39:10;;;;;;;7.20;6.60;;;;;;;25.30;54.24;100800.47;6090878;23;20025;-77
2023/06/26 09:41:41;;;;;;;7.47;6.97;;;;;;;25.25;54.46;100776.81;6082146;23;20420;-78
2023/06/26 09:44:12;;;;;;;7.20;6.70;;;;;;;25.41;52.97;100774.06;6062841;23;20028;-78
2023/06/26 09:46:38;;;;;;;6.85;6.40;;;;;;;25.54;53.54;100796.81;6090043;23;20082;-77
2023/06/26 09:49:06;;;;;;;7.95;6.70;;;;;;;24.57;53.53;100634.06;6060699;23;20346;-78
2023/06/26 09:51:34;;;;;;;7.20;6.70;;;;;;;25.73;53.38;100825.97;6094546;23;20476;-80
2023/06/26 09:54:02;;;;;;;7.32;6.45;;;;;;;25.99;53.52;100857.94;6067450;23;20240;-79
2023/06/26 09:56:30;;;;;;;7.80;6.57;;;;;;;25.58;52.98;100750.63;6084991;23;20034;-78
2023/06/26 09:58:58;;;;;;;7.20;6.60;;;;;;;26.41;52.96;100859.34;6094574;23;20168;-79
2023/06/26 10:01:25;;;;;;;7.15;6.47;;;;;;;25.47;50.97;100627.41;6085696;23;20279;-80
2023/06/26 10:03:53;;;;;;;8.32;7.55;;;;;;;25.92;50.79;100727.91;6065233;23;20030;-81
2023/06/26 10:06:31;;;;;;;7.55;6.95;;;;;;;27.00;50.30;100844.38;6104631;23;20026;-78
2023/06/26 10:08:59;;;;;;;7.15;6.57;;;;;;;27.33;48.69;100790.16;6101401;23;20030;-79
2023/06/26 10:11:44;;;;;;;7.07;6.65;;;;;;;26.64;47.47;100638.63;6104547;23;20089;-80
2023/06/26 10:14:11;;;;;;;7.07;6.60;;;;;;;26.23;48.02;100657.03;6125306;23;20025;-78
2023/06/26 10:16:45;;;;;;;8.43;7.00;;;;;;;26.29;48.19;100679.69;6102218;23;20026;-78
2023/06/26 10:19:14;;;;;;;6.85;6.35;;;;;;;26.45;47.25;100601.47;6098946;23;20037;-78
2023/06/26 10:21:41;;;;;;;6.95;6.55;;;;;;;27.37;47.16;100759.09;6123940;23;20025;-76
2023/06/26 10:24:10;;;;;;;9.13;6.70;;;;;;;26.65;47.97;100704.06;6096580;23;20088;-76
2023/06/26 10:26:41;;;;;;;7.22;6.72;;;;;;;26.65;47.91;100722.91;6091351;23;20025;-78
2023/06/26 10:29:08;;;;;;;6.93;6.32;;;;;;;26.35;48.76;100743.53;6117749;23;20470;-80
2023/06/26 10:31:37;;;;;;;7.97;7.38;;;;;;;25.90;49.61;100716.50;6101838;23;20049;-81
2023/06/26 10:34:05;;;;;;;7.32;6.80;;;;;;;25.65;49.31;100670.94;6117108;23;20074;-77
2023/06/26 10:36:31;;;;;;;6.78;6.35;;;;;;;26.55;48.52;100760.00;6118304;23;20037;-77
2023/06/26 10:39:05;;;;;;;7.05;6.45;;;;;;;26.02;48.54;100700.75;6066703;23;20245;-78
2023/06/26 10:41:42;;;;;;;7.05;6.55;;;;;;;25.81;48.45;100704.94;6120460;23;20038;-77
2023/06/26 10:44:26;;;;;;;7.38;6.47;;;;;;;26.21;47.59;100712.88;6116259;23;20012;-78
2023/06/26 10:46:54;;;;;;;6.78;6.38;;;;;;;25.55;46.77;100576.28;6120197;23;20305;-76
2023/06/26 10:49:24;;;;;;;7.25;6.57;;;;;;;25.56;47.00;100575.28;6117423;23;20387;-77
2023/06/26 10:51:51;;;;;;;6.78;6.35;;;;;;;26.76;46.17;100713.50;6118831;23;20030;-77
2023/06/26 10:54:19;;;;;;;6.80;6.30;;;;;;;25.73;46.74;100631.59;6111204;23;20022;-77
2023/06/26 10:56:47;;;;;;;6.50;6.13;;;;;;;26.91;45.58;100698.19;6120942;23;20045;-77
2023/06/26 10:59:20;;;;;;;6.60;6.13;;;;;;;26.67;45.09;100649.00;6124494;23;20032;-76
2023/06/26 11:01:58;;;;;;;6.47;6.07;;;;;;;26.84;44.00;100632.63;6120533;23;20105;-77
2023/06/26 11:04:37;;;;;;;6.63;6.15;;;;;;;26.31;44.26;100545.81;6115990;23;20025;-76
2023/06/26 11:07:24;;;;;;;6.53;5.90;;;;;;;26.86;43.09;100609.91;6121920;23;20041;-77
2023/06/26 11:09:59;;;;;;;6.68;6.05;;;;;;;26.22;42.84;100462.53;6124360;23;20033;-76
2023/06/26 11:12:38;;;;;;;6.03;5.72;;;;;;;27.10;44.04;100695.94;6134372;23;20017;-75
2023/06/26 11:15:16;;;;;;;6.53;5.93;;;;;;;26.51;44.67;100641.09;6071860;23;20029;-77
2023/06/26 11:17:43;;;;;;;6.65;6.20;;;;;;;26.64;44.63;100644.00;6117505;23;20182;-77
2023/06/26 11:20:12;;;;;;;6.20;5.80;;;;;;;26.24;44.39;100626.41;6095850;23;20037;-78
2023/06/26 11:22:40;;;;;;;5.95;5.65;;;;;;;25.51;43.85;100474.75;6072677;23;20328;-78
2023/06/26 11:25:08;;;;;;;6.13;5.63;;;;;;;26.28;44.09;100614.28;6120301;23;20069;-78
2023/06/26 11:27:38;;;;;;;6.05;5.75;;;;;;;25.41;44.63;100494.63;6091987;23;20028;-78
2023/06/26 11:30:06;;;;;;;6.22;5.78;;;;;;;26.01;41.81;100446.31;6125347;23;20288;-77
2023/06/26 11:32:33;;;;;;;6.13;5.72;;;;;;;25.87;41.47;100421.91;6096443;23;20021;-76